createdAt,value
2018-09-29T00:00:23.742Z,1.80
2018-09-29T00:01:23.772Z,1.70
2018-09-29T00:02:23.772Z,1.60
2018-09-29T00:03:23.791Z,1.60
2018-09-29T00:04:23.834Z,1.80
2018-09-29T00:05:23.819Z,1.90
2018-09-29T00:06:23.832Z,1.40
2018-09-29T00:07:23.834Z,1.50
2018-09-29T00:08:23.864Z,1.50
2018-09-29T00:09:23.882Z,1.50
2018-09-29T00:10:23.884Z,1.50
2018-09-29T00:11:23.896Z,1.90
2018-09-29T00:12:23.942Z,1.70
2018-09-29T00:13:23.943Z,2.00
2018-09-29T00:14:23.967Z,1.60
2018-09-29T00:15:23.950Z,1.80
2018-09-29T00:16:24.016Z,2.10
2018-09-29T00:17:23.981Z,1.80
2018-09-29T00:18:24.009Z,1.70
2018-09-29T00:19:24.034Z,1.60
2018-09-29T00:20:24.050Z,2.30
2018-09-29T00:21:24.076Z,1.50
2018-09-29T00:22:24.071Z,1.90
2018-09-29T00:23:24.085Z,1.60
2018-09-29T00:24:24.107Z,1.70
2018-09-29T00:25:24.130Z,1.90
2018-09-29T00:26:24.130Z,1.50
2018-09-29T00:27:24.159Z,1.30
2018-09-29T00:28:24.159Z,1.30
2018-09-29T00:29:24.181Z,1.40
2018-09-29T00:30:24.213Z,1.70
2018-09-29T00:31:24.202Z,1.20
2018-09-29T00:32:24.222Z,1.70
2018-09-29T00:33:24.231Z,1.40
2018-09-29T00:34:24.275Z,2.00
2018-09-29T00:35:24.286Z,1.50
2018-09-29T00:36:24.301Z,1.90
2018-09-29T00:37:24.333Z,1.70
2018-09-29T00:38:24.290Z,1.90
2018-09-29T00:39:24.304Z,1.60
2018-09-29T00:40:24.319Z,1.70
2018-09-29T00:41:24.335Z,1.70
2018-09-29T00:42:24.352Z,1.70
2018-09-29T00:43:24.379Z,1.60
2018-09-29T00:44:24.380Z,1.40
2018-09-29T00:45:24.398Z,1.60
2018-09-29T00:46:24.415Z,1.40
2018-09-29T00:47:24.430Z,1.90
2018-09-29T00:48:24.442Z,1.50
2018-09-29T00:49:24.462Z,1.60
2018-09-29T00:50:24.480Z,1.80
2018-09-29T00:51:24.492Z,1.60
2018-09-29T00:52:24.507Z,1.60
2018-09-29T00:53:24.517Z,1.80
2018-09-29T00:54:24.533Z,1.60
2018-09-29T00:55:24.549Z,1.70
2018-09-29T00:56:24.564Z,1.50
2018-09-29T00:57:24.580Z,1.70
2018-09-29T00:58:24.597Z,1.60
2018-09-29T00:59:24.607Z,1.60
2018-09-29T01:00:24.625Z,1.60
2018-09-29T01:01:24.645Z,1.70
2018-09-29T01:02:24.652Z,1.60
2018-09-29T01:03:24.688Z,2.10
2018-09-29T01:04:24.689Z,1.90
2018-09-29T01:05:24.700Z,1.50
2018-09-29T01:06:24.713Z,1.40
2018-09-29T01:07:24.731Z,1.30
2018-09-29T01:08:24.746Z,1.40
2018-09-29T01:09:24.759Z,1.30
2018-09-29T01:10:24.773Z,1.50
2018-09-29T01:11:24.796Z,1.70
2018-09-29T01:12:24.808Z,1.40
2018-09-29T01:13:24.829Z,1.50
2018-09-29T01:14:24.831Z,1.60
2018-09-29T01:15:24.857Z,1.60
2018-09-29T01:16:24.864Z,1.40
2018-09-29T01:17:24.876Z,1.80
2018-09-29T01:18:24.897Z,1.60
2018-09-29T01:19:24.905Z,1.30
2018-09-29T01:20:24.923Z,1.70
2018-09-29T01:21:24.937Z,1.30
2018-09-29T01:22:24.949Z,1.90
2018-09-29T01:23:24.966Z,1.50
2018-09-29T01:24:24.992Z,2.20
2018-09-29T01:25:25.114Z,1.30
2018-09-29T01:26:25.010Z,1.20
2018-09-29T01:27:25.022Z,1.20
2018-09-29T01:28:25.040Z,1.70
2018-09-29T01:29:25.053Z,1.40
2018-09-29T01:30:25.076Z,1.70
2018-09-29T01:31:25.087Z,1.40
2018-09-29T01:32:25.108Z,1.60
2018-09-29T01:33:25.110Z,1.40
2018-09-29T01:34:25.129Z,1.40
2018-09-29T01:35:25.145Z,1.40
2018-09-29T01:36:25.160Z,1.30
2018-09-29T01:37:25.183Z,1.60
2018-09-29T01:38:25.189Z,1.40
2018-09-29T01:39:25.201Z,1.30
2018-09-29T01:40:25.218Z,1.40
2018-09-29T01:41:25.238Z,1.60
2018-09-29T01:42:25.251Z,1.50
2018-09-29T01:43:25.264Z,1.60
2018-09-29T01:44:25.306Z,1.50
2018-09-29T01:45:25.305Z,1.60
2018-09-29T01:46:25.310Z,2.30
2018-09-29T01:47:25.338Z,1.80
2018-09-29T01:48:25.345Z,1.60
2018-09-29T01:49:25.355Z,1.60
2018-09-29T01:50:25.370Z,1.50
2018-09-29T01:51:25.380Z,1.30
2018-09-29T01:52:25.392Z,1.50
2018-09-29T01:53:25.408Z,1.60
2018-09-29T01:54:25.424Z,1.60
2018-09-29T01:55:25.460Z,1.80
2018-09-29T01:56:25.457Z,1.50
2018-09-29T01:57:25.466Z,1.70
2018-09-29T01:58:25.486Z,1.60
2018-09-29T01:59:25.502Z,1.50
2018-09-29T02:00:25.511Z,1.90
2018-09-29T02:01:25.527Z,1.50
2018-09-29T02:02:25.538Z,1.40
2018-09-29T02:03:25.561Z,1.30
2018-09-29T02:04:25.580Z,1.30
2018-09-29T02:05:25.584Z,1.60
2018-09-29T02:06:25.596Z,1.50
2018-09-29T02:07:25.622Z,1.30
2018-09-29T02:08:25.631Z,1.40
2018-09-29T02:09:25.644Z,1.80
2018-09-29T02:10:25.658Z,1.40
2018-09-29T02:11:25.672Z,1.70
2018-09-29T02:12:25.694Z,1.70
2018-09-29T02:13:25.699Z,1.50
2018-09-29T02:14:25.715Z,1.40
2018-09-29T02:15:25.728Z,1.30
2018-09-29T02:16:25.750Z,1.50
2018-09-29T02:17:25.760Z,1.70
2018-09-29T02:18:25.772Z,1.40
2018-09-29T02:19:25.790Z,1.10
2018-09-29T02:20:25.811Z,1.30
2018-09-29T02:21:25.817Z,1.40
2018-09-29T02:22:25.830Z,1.10
2018-09-29T02:23:25.844Z,1.30
2018-09-29T02:24:25.866Z,1.50
2018-09-29T02:25:25.874Z,1.60
2018-09-29T02:26:26.015Z,1.50
2018-09-29T02:27:25.902Z,1.40
2018-09-29T02:28:25.919Z,1.70
2018-09-29T02:29:25.935Z,2.30
2018-09-29T02:30:25.953Z,2.50
2018-09-29T02:31:25.973Z,1.40
2018-09-29T02:32:25.979Z,1.80
2018-09-29T02:33:25.988Z,1.40
2018-09-29T02:34:26.008Z,1.80
2018-09-29T02:35:26.024Z,1.40
2018-09-29T02:36:26.107Z,1.20
2018-09-29T02:37:26.052Z,1.30
2018-09-29T02:38:26.085Z,1.30
2018-09-29T02:39:26.078Z,1.60
2018-09-29T02:40:26.097Z,1.30
2018-09-29T02:41:26.118Z,1.80
2018-09-29T02:42:26.129Z,1.40
2018-09-29T02:43:26.147Z,1.50
2018-09-29T02:44:26.160Z,1.70
2018-09-29T02:45:26.168Z,1.50
2018-09-29T02:46:26.178Z,1.50
2018-09-29T02:47:26.192Z,1.80
2018-09-29T02:48:26.210Z,1.30
2018-09-29T02:49:26.231Z,1.60
2018-09-29T02:50:26.235Z,2.00
2018-09-29T02:51:26.271Z,1.40
2018-09-29T02:52:26.265Z,1.40
2018-09-29T02:53:26.280Z,1.50
2018-09-29T02:54:26.293Z,1.50
2018-09-29T02:55:26.310Z,1.10
2018-09-29T02:56:26.338Z,1.70
2018-09-29T02:57:26.337Z,1.50
2018-09-29T02:58:26.349Z,1.50
2018-09-29T02:59:26.369Z,1.40
2018-09-29T03:00:26.382Z,1.40
2018-09-29T03:01:26.392Z,1.60
2018-09-29T03:02:26.409Z,1.50
2018-09-29T03:03:26.427Z,1.40
2018-09-29T03:04:26.441Z,1.60
2018-09-29T03:05:26.451Z,1.40
2018-09-29T03:06:26.471Z,1.10
2018-09-29T03:07:26.479Z,1.60
2018-09-29T03:08:26.493Z,1.30
2018-09-29T03:09:26.507Z,1.40
2018-09-29T03:10:26.532Z,1.50
2018-09-29T03:11:26.545Z,1.40
2018-09-29T03:12:26.554Z,1.70
2018-09-29T03:13:26.566Z,1.40
2018-09-29T03:14:26.579Z,1.10
2018-09-29T03:15:26.594Z,1.30
2018-09-29T03:16:26.616Z,1.20
2018-09-29T03:17:26.635Z,1.70
2018-09-29T03:18:26.637Z,1.60
2018-09-29T03:19:26.731Z,1.30
2018-09-29T03:20:26.673Z,1.30
2018-09-29T03:21:26.681Z,1.50
2018-09-29T03:22:26.725Z,1.30
2018-09-29T03:23:26.713Z,1.40
2018-09-29T03:24:26.784Z,1.20
2018-09-29T03:25:26.736Z,1.50
2018-09-29T03:26:26.763Z,1.10
2018-09-29T03:27:26.777Z,1.20
2018-09-29T03:28:26.788Z,1.20
2018-09-29T03:29:26.796Z,1.30
2018-09-29T03:30:26.826Z,1.30
2018-09-29T03:31:26.901Z,1.40
2018-09-29T03:32:26.841Z,1.40
2018-09-29T03:33:26.862Z,1.30
2018-09-29T03:34:26.880Z,1.30
2018-09-29T03:35:26.887Z,1.30
2018-09-29T03:36:26.906Z,1.10
2018-09-29T03:37:26.914Z,1.30
2018-09-29T03:38:26.923Z,1.30
2018-09-29T03:39:26.941Z,1.80
2018-09-29T03:40:26.954Z,1.50
2018-09-29T03:41:26.966Z,1.20
2018-09-29T03:42:26.982Z,1.40
2018-09-29T03:43:27.002Z,1.60
2018-09-29T03:44:27.011Z,1.10
2018-09-29T03:45:27.029Z,1.60
2018-09-29T03:46:27.039Z,1.40
2018-09-29T03:47:27.071Z,1.40
2018-09-29T03:48:27.067Z,1.40
2018-09-29T03:49:27.081Z,1.40
2018-09-29T03:50:27.098Z,1.30
2018-09-29T03:51:27.109Z,1.50
2018-09-29T03:52:27.123Z,1.50
2018-09-29T03:53:27.174Z,1.60
2018-09-29T03:54:27.154Z,1.20
2018-09-29T03:55:27.168Z,1.30
2018-09-29T03:56:27.189Z,1.40
2018-09-29T03:57:27.196Z,1.40
2018-09-29T03:58:27.208Z,1.20
2018-09-29T03:59:27.231Z,1.40
2018-09-29T04:00:27.238Z,1.40
2018-09-29T04:01:27.252Z,1.30
2018-09-29T04:02:27.265Z,1.10
2018-09-29T04:03:27.284Z,1.60
2018-09-29T04:04:27.320Z,1.40
2018-09-29T04:05:27.313Z,1.50
2018-09-29T04:06:27.324Z,1.40
2018-09-29T04:07:27.341Z,1.50
2018-09-29T04:08:27.357Z,1.60
2018-09-29T04:09:27.367Z,1.40
2018-09-29T04:10:27.382Z,1.50
2018-09-29T04:11:27.400Z,1.20
2018-09-29T04:12:27.414Z,1.50
2018-09-29T04:13:27.426Z,1.40
2018-09-29T04:14:27.440Z,1.80
2018-09-29T04:15:27.469Z,1.40
2018-09-29T04:16:27.469Z,1.80
2018-09-29T04:17:27.484Z,1.40
2018-09-29T04:18:27.498Z,1.20
2018-09-29T04:19:27.514Z,1.70
2018-09-29T04:20:27.531Z,1.50
2018-09-29T04:21:27.545Z,1.50
2018-09-29T04:22:27.556Z,1.40
2018-09-29T04:23:27.569Z,1.40
2018-09-29T04:24:27.586Z,1.70
2018-09-29T04:25:27.592Z,1.30
2018-09-29T04:26:27.608Z,1.50
2018-09-29T04:27:27.624Z,1.40
2018-09-29T04:28:27.642Z,1.80
2018-09-29T04:29:27.660Z,1.50
2018-09-29T04:30:27.676Z,1.50
2018-09-29T04:31:27.687Z,1.80
2018-09-29T04:32:27.729Z,1.40
2018-09-29T04:33:27.718Z,2.00
2018-09-29T04:34:27.734Z,2.10
2018-09-29T04:35:27.732Z,1.70
2018-09-29T04:36:27.748Z,2.00
2018-09-29T04:37:27.766Z,1.90
2018-09-29T04:38:27.775Z,1.70
2018-09-29T04:39:27.798Z,1.70
2018-09-29T04:40:27.814Z,2.80
2018-09-29T04:41:27.826Z,2.20
2018-09-29T04:42:27.834Z,1.60
2018-09-29T04:43:27.848Z,1.60
2018-09-29T04:44:27.867Z,1.50
2018-09-29T04:45:27.905Z,1.60
2018-09-29T04:46:27.921Z,1.60
2018-09-29T04:47:27.909Z,1.80
2018-09-29T04:48:27.921Z,1.50
2018-09-29T04:49:27.934Z,1.60
2018-09-29T04:50:27.953Z,1.50
2018-09-29T04:51:27.961Z,1.50
2018-09-29T04:52:27.976Z,1.80
2018-09-29T04:53:27.991Z,1.60
2018-09-29T04:54:28.003Z,1.70
2018-09-29T04:55:28.022Z,1.60
2018-09-29T04:56:28.042Z,1.60
2018-09-29T04:57:28.049Z,1.80
2018-09-29T04:58:28.062Z,2.10
2018-09-29T04:59:28.078Z,1.50
2018-09-29T05:00:28.098Z,1.70
2018-09-29T05:01:28.107Z,1.50
2018-09-29T05:02:28.124Z,1.80
2018-09-29T05:03:28.135Z,1.30
2018-09-29T05:04:28.146Z,1.90
2018-09-29T05:05:28.168Z,1.40
2018-09-29T05:06:28.188Z,1.70
2018-09-29T05:07:28.192Z,1.70
2018-09-29T05:08:28.209Z,2.00
2018-09-29T05:09:28.218Z,1.90
2018-09-29T05:10:28.235Z,1.80
2018-09-29T05:11:28.258Z,1.40
2018-09-29T05:12:28.262Z,1.80
2018-09-29T05:13:28.281Z,1.30
2018-09-29T05:14:28.295Z,1.80
2018-09-29T05:15:28.307Z,1.60
2018-09-29T05:16:28.329Z,2.40
2018-09-29T05:17:28.336Z,1.50
2018-09-29T05:18:28.346Z,1.60
2018-09-29T05:19:28.359Z,1.90
2018-09-29T05:20:28.376Z,1.60
2018-09-29T05:21:28.404Z,1.40
2018-09-29T05:22:28.405Z,1.50
2018-09-29T05:23:28.418Z,1.50
2018-09-29T05:24:28.430Z,1.70
2018-09-29T05:25:28.450Z,1.30
2018-09-29T05:26:28.461Z,1.30
2018-09-29T05:27:28.475Z,1.70
2018-09-29T05:28:28.494Z,1.60
2018-09-29T05:29:28.506Z,1.40
2018-09-29T05:30:28.517Z,1.50
2018-09-29T05:31:28.534Z,1.60
2018-09-29T05:32:28.550Z,1.90
2018-09-29T05:33:28.561Z,1.60
2018-09-29T05:34:28.590Z,1.70
2018-09-29T05:35:28.592Z,1.60
2018-09-29T05:36:28.603Z,1.50
2018-09-29T05:37:28.625Z,1.60
2018-09-29T05:38:28.732Z,1.50
2018-09-29T05:39:28.653Z,1.70
2018-09-29T05:40:28.661Z,1.40
2018-09-29T05:41:28.694Z,1.60
2018-09-29T05:42:28.696Z,1.70
2018-09-29T05:43:28.703Z,1.70
2018-09-29T05:44:28.721Z,1.70
2018-09-29T05:45:28.743Z,1.90
2018-09-29T05:46:28.759Z,2.10
2018-09-29T05:47:28.765Z,2.00
2018-09-29T05:48:28.775Z,2.00
2018-09-29T05:49:28.793Z,2.00
2018-09-29T05:50:28.812Z,1.80
2018-09-29T05:51:28.826Z,1.50
2018-09-29T05:52:28.844Z,1.80
2018-09-29T05:53:28.849Z,1.50
2018-09-29T05:54:28.867Z,2.20
2018-09-29T05:55:28.881Z,1.80
2018-09-29T05:56:28.897Z,1.90
2018-09-29T05:57:28.943Z,2.20
2018-09-29T05:58:28.933Z,2.00
2018-09-29T05:59:28.936Z,2.00
2018-09-29T06:00:29.016Z,1.70
2018-09-29T06:01:28.971Z,2.50
2018-09-29T06:02:28.982Z,2.10
2018-09-29T06:03:28.998Z,1.90
2018-09-29T06:04:29.011Z,1.70
2018-09-29T06:05:29.055Z,1.70
2018-09-29T06:06:29.046Z,1.90
2018-09-29T06:07:29.119Z,2.00
2018-09-29T06:08:29.081Z,2.10
2018-09-29T06:09:29.102Z,1.70
2018-09-29T06:10:29.111Z,2.20
2018-09-29T06:11:29.127Z,1.90
2018-09-29T06:12:29.156Z,1.80
2018-09-29T06:13:29.173Z,1.50
2018-09-29T06:14:29.180Z,1.50
2018-09-29T06:15:29.202Z,1.90
2018-09-29T06:16:29.221Z,1.80
2018-09-29T06:17:29.234Z,1.80
2018-09-29T06:18:29.249Z,1.80
2018-09-29T06:19:29.275Z,1.80
2018-09-29T06:20:29.283Z,2.30
2018-09-29T06:21:29.304Z,1.90
2018-09-29T06:22:29.331Z,2.30
2018-09-29T06:23:29.341Z,2.10
2018-09-29T06:24:29.367Z,2.20
2018-09-29T06:25:29.378Z,2.20
2018-09-29T06:26:29.398Z,2.10
2018-09-29T06:27:29.414Z,1.60
2018-09-29T06:28:29.433Z,2.20
2018-09-29T06:29:29.444Z,2.00
2018-09-29T06:30:29.543Z,1.80
2018-09-29T06:31:29.491Z,1.90
2018-09-29T06:32:29.537Z,2.80
2018-09-29T06:33:29.523Z,2.00
2018-09-29T06:34:29.541Z,1.80
2018-09-29T06:35:29.561Z,1.70
2018-09-29T06:36:29.579Z,1.80
2018-09-29T06:37:29.594Z,2.20
2018-09-29T06:38:29.618Z,2.20
2018-09-29T06:39:29.639Z,1.70
2018-09-29T06:40:29.657Z,1.80
2018-09-29T06:41:29.689Z,2.10
2018-09-29T06:42:29.704Z,2.70
2018-09-29T06:43:29.712Z,1.90
2018-09-29T06:44:29.743Z,2.00
2018-09-29T06:45:29.757Z,2.30
2018-09-29T06:46:29.802Z,1.70
2018-09-29T06:47:29.810Z,1.70
2018-09-29T06:48:29.819Z,2.10
2018-09-29T06:49:29.833Z,2.10
2018-09-29T06:50:29.855Z,2.00
2018-09-29T06:51:29.887Z,2.20
2018-09-29T06:52:29.894Z,2.10
2018-09-29T06:53:29.920Z,1.80
2018-09-29T06:54:30.004Z,1.90
2018-09-29T06:55:29.960Z,2.30
2018-09-29T06:56:29.987Z,2.10
2018-09-29T06:57:29.999Z,1.90
2018-09-29T06:58:30.013Z,1.90
2018-09-29T06:59:30.038Z,2.00
2018-09-29T07:00:30.055Z,2.10
2018-09-29T07:01:30.077Z,2.00
2018-09-29T07:02:30.117Z,2.10
2018-09-29T07:03:30.120Z,1.90
2018-09-29T07:04:30.145Z,2.00
2018-09-29T07:05:30.164Z,1.80
2018-09-29T07:06:30.185Z,1.90
2018-09-29T07:07:30.199Z,2.30
2018-09-29T07:08:30.223Z,2.20
2018-09-29T07:09:30.250Z,1.70
2018-09-29T07:10:30.280Z,2.20
2018-09-29T07:11:30.286Z,1.90
2018-09-29T07:12:30.312Z,2.20
2018-09-29T07:13:30.327Z,2.30
2018-09-29T07:14:30.356Z,2.40
2018-09-29T07:15:30.368Z,1.90
2018-09-29T07:16:30.393Z,2.20
2018-09-29T07:17:30.425Z,2.40
2018-09-29T07:18:30.439Z,2.20
2018-09-29T07:19:30.462Z,2.30
2018-09-29T07:20:30.485Z,2.30
2018-09-29T07:21:30.528Z,2.20
2018-09-29T07:22:30.524Z,1.80
2018-09-29T07:23:30.550Z,2.20
2018-09-29T07:24:30.587Z,2.20
2018-09-29T07:25:30.656Z,1.90
2018-09-29T07:26:30.611Z,2.20
2018-09-29T07:27:30.666Z,2.10
2018-09-29T07:28:30.655Z,1.70
2018-09-29T07:29:30.688Z,2.00
2018-09-29T07:30:30.702Z,2.40
2018-09-29T07:31:30.814Z,2.10
2018-09-29T07:32:30.744Z,1.90
2018-09-29T07:33:30.764Z,2.40
2018-09-29T07:34:30.789Z,2.20
2018-09-29T07:35:30.814Z,1.70
2018-09-29T07:36:30.834Z,2.30
2018-09-29T07:37:30.855Z,3.00
2018-09-29T07:38:30.878Z,2.30
2018-09-29T07:39:30.903Z,2.30
2018-09-29T07:40:30.924Z,2.40
2018-09-29T07:41:30.945Z,2.80
2018-09-29T07:42:30.969Z,2.50
2018-09-29T07:43:30.990Z,2.00
2018-09-29T07:44:31.020Z,2.10
2018-09-29T07:45:31.036Z,2.70
2018-09-29T07:46:31.055Z,2.20
2018-09-29T07:47:31.084Z,2.70
2018-09-29T07:48:31.099Z,3.10
2018-09-29T07:49:31.124Z,2.60
2018-09-29T07:50:31.154Z,2.40
2018-09-29T07:51:31.171Z,2.50
2018-09-29T07:52:31.198Z,2.30
2018-09-29T07:53:31.226Z,2.40
2018-09-29T07:54:31.234Z,2.40
2018-09-29T07:55:31.263Z,2.80
2018-09-29T07:56:31.285Z,2.50
2018-09-29T07:57:31.330Z,2.50
2018-09-29T07:58:31.338Z,2.20
2018-09-29T07:59:31.355Z,2.70
2018-09-29T08:00:31.389Z,2.20
2018-09-29T08:01:31.401Z,2.70
2018-09-29T08:02:31.424Z,2.10
2018-09-29T08:03:31.448Z,2.60
2018-09-29T08:04:31.473Z,2.20
2018-09-29T08:05:31.488Z,2.70
2018-09-29T08:06:31.581Z,2.80
2018-09-29T08:07:31.531Z,2.90
2018-09-29T08:08:31.557Z,2.80
2018-09-29T08:09:31.578Z,2.90
2018-09-29T08:10:31.714Z,3.10
2018-09-29T08:11:31.629Z,3.30
2018-09-29T08:12:31.705Z,3.40
2018-09-29T08:13:31.674Z,3.40
2018-09-29T08:14:31.695Z,3.60
2018-09-29T08:15:31.725Z,3.60
2018-09-29T08:16:31.738Z,3.60
2018-09-29T08:17:31.755Z,3.80
2018-09-29T08:18:31.779Z,3.60
2018-09-29T08:19:31.808Z,3.20
2018-09-29T08:20:31.858Z,3.00
2018-09-29T08:21:31.845Z,3.20
2018-09-29T08:22:31.864Z,3.50
2018-09-29T08:23:31.886Z,3.10
2018-09-29T08:24:31.907Z,3.40
2018-09-29T08:25:31.928Z,3.30
2018-09-29T08:26:31.945Z,3.20
2018-09-29T08:27:31.970Z,3.20
2018-09-29T08:28:31.987Z,3.20
2018-09-29T08:29:32.002Z,3.30
2018-09-29T08:30:32.024Z,3.30
2018-09-29T08:31:32.058Z,3.10
2018-09-29T08:32:32.068Z,3.30
2018-09-29T08:33:32.093Z,3.60
2018-09-29T08:34:32.098Z,3.30
2018-09-29T08:35:32.119Z,3.00
2018-09-29T08:36:32.151Z,3.40
2018-09-29T08:37:32.158Z,3.20
2018-09-29T08:38:32.172Z,3.60
2018-09-29T08:39:32.192Z,3.20
2018-09-29T08:40:32.209Z,3.40
2018-09-29T08:41:32.229Z,3.00
2018-09-29T08:42:32.256Z,3.40
2018-09-29T08:43:32.266Z,3.60
2018-09-29T08:44:32.286Z,3.50
2018-09-29T08:45:32.306Z,3.00
2018-09-29T08:46:32.320Z,3.50
2018-09-29T08:47:32.335Z,3.10
2018-09-29T08:48:32.362Z,3.30
2018-09-29T08:49:32.421Z,3.30
2018-09-29T08:50:32.394Z,3.60
2018-09-29T08:51:32.408Z,3.40
2018-09-29T08:52:32.424Z,3.70
2018-09-29T08:53:32.526Z,3.80
2018-09-29T08:54:32.472Z,3.80
2018-09-29T08:55:32.482Z,3.80
2018-09-29T08:56:32.502Z,3.00
2018-09-29T08:57:32.521Z,3.90
2018-09-29T08:58:32.533Z,2.90
2018-09-29T08:59:32.583Z,3.30
2018-09-29T09:00:32.566Z,3.10
2018-09-29T09:01:32.593Z,3.10
2018-09-29T09:02:32.614Z,3.50
2018-09-29T09:03:32.622Z,3.90
2018-09-29T09:04:32.634Z,3.50
2018-09-29T09:05:32.653Z,3.90
2018-09-29T09:06:32.676Z,2.90
2018-09-29T09:07:32.722Z,3.30
2018-09-29T09:08:32.711Z,3.10
2018-09-29T09:09:32.800Z,3.70
2018-09-29T09:10:32.767Z,3.90
2018-09-29T09:11:32.763Z,3.60
2018-09-29T09:12:32.786Z,3.50
2018-09-29T09:13:32.799Z,4.10
2018-09-29T09:14:32.821Z,3.90
2018-09-29T09:15:32.840Z,3.70
2018-09-29T09:16:32.859Z,4.20
2018-09-29T09:17:32.869Z,3.40
2018-09-29T09:18:32.912Z,3.50
2018-09-29T09:19:32.910Z,3.00
2018-09-29T09:20:32.921Z,3.80
2018-09-29T09:21:32.944Z,4.30
2018-09-29T09:22:32.963Z,4.10
2018-09-29T09:23:33.005Z,3.90
2018-09-29T09:24:32.988Z,3.90
2018-09-29T09:25:33.005Z,4.00
2018-09-29T09:26:33.030Z,3.90
2018-09-29T09:27:33.043Z,3.70
2018-09-29T09:28:33.102Z,4.00
2018-09-29T09:29:33.079Z,3.30
2018-09-29T09:30:33.100Z,2.80
2018-09-29T09:31:33.113Z,3.50
2018-09-29T09:32:33.141Z,3.00
2018-09-29T09:33:33.160Z,2.40
2018-09-29T09:34:33.174Z,2.90
2018-09-29T09:35:33.186Z,2.60
2018-09-29T09:36:33.206Z,2.60
2018-09-29T09:37:33.222Z,2.60
2018-09-29T09:38:33.243Z,2.40
2018-09-29T09:39:33.257Z,2.90
2018-09-29T09:40:33.283Z,2.20
2018-09-29T09:41:33.299Z,2.10
2018-09-29T09:42:33.325Z,2.80
2018-09-29T09:43:33.377Z,2.40
2018-09-29T09:44:33.351Z,2.30
2018-09-29T09:45:33.368Z,2.50
2018-09-29T09:46:33.382Z,1.90
2018-09-29T09:47:33.406Z,2.20
2018-09-29T09:48:33.423Z,2.10
2018-09-29T09:49:33.513Z,2.10
2018-09-29T09:50:33.465Z,2.50
2018-09-29T09:51:33.486Z,1.90
2018-09-29T09:52:33.497Z,1.80
2018-09-29T09:53:33.524Z,2.30
2018-09-29T09:54:33.534Z,1.60
2018-09-29T09:55:33.546Z,1.70
2018-09-29T09:56:33.575Z,1.70
2018-09-29T09:57:33.590Z,1.90
2018-09-29T09:58:33.605Z,2.10
2018-09-29T09:59:33.622Z,2.10
2018-09-29T10:00:33.656Z,1.80
2018-09-29T10:01:33.689Z,2.30
2018-09-29T10:02:33.680Z,2.00
2018-09-29T10:03:33.708Z,1.80
2018-09-29T10:04:33.714Z,2.20
2018-09-29T10:05:33.752Z,1.60
2018-09-29T10:06:33.838Z,1.90
2018-09-29T10:07:33.787Z,1.90
2018-09-29T10:08:33.790Z,1.90
2018-09-29T10:09:33.808Z,1.50
2018-09-29T10:10:33.853Z,1.30
2018-09-29T10:11:33.877Z,1.60
2018-09-29T10:12:33.864Z,1.50
2018-09-29T10:13:33.878Z,1.50
2018-09-29T10:14:33.906Z,1.50
2018-09-29T10:15:33.919Z,1.20
2018-09-29T10:16:33.934Z,1.40
2018-09-29T10:17:34.037Z,1.50
2018-09-29T10:18:33.980Z,1.80
2018-09-29T10:19:33.994Z,1.40
2018-09-29T10:20:34.016Z,1.50
2018-09-29T10:21:34.032Z,2.00
2018-09-29T10:22:34.060Z,1.50
2018-09-29T10:23:34.081Z,1.40
2018-09-29T10:24:34.084Z,1.50
2018-09-29T10:25:34.106Z,1.50
2018-09-29T10:26:34.136Z,1.50
2018-09-29T10:27:34.163Z,1.60
2018-09-29T10:28:34.160Z,1.40
2018-09-29T10:29:34.179Z,2.30
2018-09-29T10:30:34.225Z,2.10
2018-09-29T10:31:34.235Z,1.60
2018-09-29T10:32:34.246Z,1.90
2018-09-29T10:33:34.255Z,1.50
2018-09-29T10:34:34.304Z,1.70
2018-09-29T10:35:34.289Z,2.10
2018-09-29T10:36:34.316Z,1.50
2018-09-29T10:37:34.330Z,1.50
2018-09-29T10:38:34.349Z,1.70
2018-09-29T10:39:34.382Z,1.60
2018-09-29T10:40:34.391Z,1.50
2018-09-29T10:41:34.401Z,1.60
2018-09-29T10:42:34.421Z,1.20
2018-09-29T10:43:34.474Z,1.50
2018-09-29T10:44:34.474Z,1.40
2018-09-29T10:45:34.479Z,1.30
2018-09-29T10:46:34.501Z,1.20
2018-09-29T10:47:34.532Z,1.30
2018-09-29T10:48:34.548Z,1.60
2018-09-29T10:49:34.555Z,1.20
2018-09-29T10:50:34.572Z,1.30
2018-09-29T10:51:34.590Z,1.20
2018-09-29T10:52:34.615Z,1.10
2018-09-29T10:53:34.629Z,1.50
2018-09-29T10:54:34.646Z,1.40
2018-09-29T10:55:34.672Z,1.70
2018-09-29T10:56:34.687Z,1.20
2018-09-29T10:57:34.704Z,1.80
2018-09-29T10:58:34.722Z,1.20
2018-09-29T10:59:34.760Z,1.40
2018-09-29T11:00:34.758Z,1.50
2018-09-29T11:01:34.798Z,1.10
2018-09-29T11:02:34.834Z,1.30
2018-09-29T11:03:34.822Z,1.10
2018-09-29T11:04:34.838Z,1.20
2018-09-29T11:05:34.855Z,2.90
2018-09-29T11:06:34.888Z,1.40
2018-09-29T11:07:34.893Z,1.70
2018-09-29T11:08:34.911Z,1.40
2018-09-29T11:09:34.930Z,1.60
2018-09-29T11:10:34.958Z,1.50
2018-09-29T11:11:34.970Z,1.40
2018-09-29T11:12:34.989Z,1.60
2018-09-29T11:13:35.012Z,1.40
2018-09-29T11:14:35.032Z,1.20
2018-09-29T11:15:35.050Z,1.80
2018-09-29T11:16:35.066Z,1.30
2018-09-29T11:17:35.084Z,1.30
2018-09-29T11:18:35.108Z,1.40
2018-09-29T11:19:35.125Z,1.90
2018-09-29T11:20:35.149Z,1.20
2018-09-29T11:21:35.156Z,1.40
2018-09-29T11:22:35.182Z,1.60
2018-09-29T11:23:35.193Z,1.30
2018-09-29T11:24:35.215Z,1.50
2018-09-29T11:25:35.233Z,1.30
2018-09-29T11:26:35.251Z,2.10
2018-09-29T11:27:35.309Z,1.60
2018-09-29T11:28:35.293Z,1.30
2018-09-29T11:29:35.305Z,1.40
2018-09-29T11:30:35.324Z,1.00
2018-09-29T11:31:35.344Z,1.30
2018-09-29T11:32:35.367Z,1.10
2018-09-29T11:33:35.391Z,1.60
2018-09-29T11:34:35.405Z,1.70
2018-09-29T11:35:35.430Z,1.30
2018-09-29T11:36:35.442Z,1.30
2018-09-29T11:37:35.460Z,1.10
2018-09-29T11:38:35.475Z,1.00
2018-09-29T11:39:35.501Z,1.20
2018-09-29T11:40:35.694Z,1.60
2018-09-29T11:41:35.532Z,1.40
2018-09-29T11:42:35.556Z,1.30
2018-09-29T11:43:35.573Z,1.10
2018-09-29T11:44:35.606Z,1.30
2018-09-29T11:45:35.609Z,1.10
2018-09-29T11:46:35.629Z,1.40
2018-09-29T11:47:35.647Z,1.30
2018-09-29T11:48:35.668Z,1.40
2018-09-29T11:49:35.691Z,1.50
2018-09-29T11:50:35.706Z,1.20
2018-09-29T11:51:35.724Z,1.20
2018-09-29T11:52:35.753Z,1.30
2018-09-29T11:53:35.761Z,1.20
2018-09-29T11:54:35.778Z,1.30
2018-09-29T11:55:35.799Z,1.40
2018-09-29T11:56:35.821Z,1.10
2018-09-29T11:57:35.836Z,1.30
2018-09-29T11:58:35.850Z,1.30
2018-09-29T11:59:35.874Z,1.50
2018-09-29T12:00:35.891Z,1.40
2018-09-29T12:01:35.943Z,2.10
2018-09-29T12:02:35.939Z,1.20
2018-09-29T12:03:35.941Z,1.60
2018-09-29T12:04:35.970Z,1.40
2018-09-29T12:05:35.985Z,1.10
2018-09-29T12:06:36.002Z,1.60
2018-09-29T12:07:36.132Z,1.30
2018-09-29T12:08:36.039Z,1.50
2018-09-29T12:09:36.059Z,1.40
2018-09-29T12:10:36.077Z,1.10
2018-09-29T12:11:36.090Z,1.40
2018-09-29T12:12:36.120Z,1.10
2018-09-29T12:13:36.128Z,1.00
2018-09-29T12:14:36.152Z,1.10
2018-09-29T12:15:36.295Z,1.60
2018-09-29T12:16:36.189Z,1.10
2018-09-29T12:17:36.202Z,1.20
2018-09-29T12:18:36.225Z,1.30
2018-09-29T12:19:36.256Z,1.60
2018-09-29T12:20:36.262Z,1.40
2018-09-29T12:21:36.287Z,1.50
2018-09-29T12:22:36.297Z,1.30
2018-09-29T12:23:36.323Z,1.10
2018-09-29T12:24:36.331Z,1.50
2018-09-29T12:25:36.363Z,1.20
2018-09-29T12:26:36.380Z,1.20
2018-09-29T12:27:36.397Z,1.00
2018-09-29T12:28:36.410Z,1.20
2018-09-29T12:29:36.434Z,1.10
2018-09-29T12:30:36.451Z,1.20
2018-09-29T12:31:36.472Z,1.20
2018-09-29T12:32:36.495Z,1.30
2018-09-29T12:33:36.513Z,1.20
2018-09-29T12:34:36.524Z,1.60
2018-09-29T12:35:36.551Z,1.00
2018-09-29T12:36:36.560Z,1.20
2018-09-29T12:37:36.673Z,1.00
2018-09-29T12:38:36.604Z,1.30
2018-09-29T12:39:36.618Z,1.20
2018-09-29T12:40:36.652Z,1.10
2018-09-29T12:41:36.656Z,1.10
2018-09-29T12:42:36.711Z,1.30
2018-09-29T12:43:36.700Z,1.10
2018-09-29T12:44:36.781Z,1.00
2018-09-29T12:45:36.743Z,1.10
2018-09-29T12:46:36.771Z,1.00
2018-09-29T12:47:36.818Z,1.00
2018-09-29T12:48:36.796Z,1.30
2018-09-29T12:49:36.825Z,0.90
2018-09-29T12:50:36.850Z,1.00
2018-09-29T12:51:36.871Z,1.40
2018-09-29T12:52:36.867Z,1.10
2018-09-29T12:53:36.889Z,1.10
2018-09-29T12:54:36.906Z,1.20
2018-09-29T12:55:36.995Z,1.20
2018-09-29T12:56:36.966Z,1.40
2018-09-29T12:57:36.970Z,1.30
2018-09-29T12:58:36.973Z,1.00
2018-09-29T12:59:36.991Z,1.00
2018-09-29T13:00:37.017Z,1.00
2018-09-29T13:01:37.028Z,1.60
2018-09-29T13:02:37.044Z,1.00
2018-09-29T13:03:37.062Z,1.00
2018-09-29T13:04:37.083Z,1.20
2018-09-29T13:05:37.102Z,1.10
2018-09-29T13:06:37.120Z,1.10
2018-09-29T13:07:37.140Z,0.70
2018-09-29T13:08:37.162Z,1.30
2018-09-29T13:09:37.186Z,1.00
2018-09-29T13:10:37.193Z,1.20
2018-09-29T13:11:37.214Z,1.70
2018-09-29T13:12:37.236Z,3.50
2018-09-29T13:13:37.247Z,1.20
2018-09-29T13:14:37.271Z,1.00
2018-09-29T13:15:37.291Z,1.20
2018-09-29T13:16:37.335Z,1.50
2018-09-29T13:17:37.323Z,0.90
2018-09-29T13:18:37.345Z,1.10